Time;durP1;ratioP1;P1;durP2;ratioP2;P2;SDS_P1;SDS_P2;PMS_P1;PMS_P2;Temp;Humidity;BMP_temperature;BMP_pressure;BME280_temperature;BME280_humidity;BME280_pressure;Samples;Min_cycle;Max_cycle;Signal;HPM_P1;HPM_P2
2023/03/18 06:16:43;;;;;;;12.68;3.90;;;2.70;82.10;;;;;;6168669;23;20450;-80
2023/03/18 06:19:12;;;;;;;11.73;5.40;;;2.70;82.10;;;;;;6134773;23;20052;-80
2023/03/18 06:21:40;;;;;;;14.93;4.72;;;2.90;81.80;;;;;;6135624;23;20503;-80
2023/03/18 06:24:08;;;;;;;11.48;4.90;;;3.70;82.20;;;;;;6135251;23;20102;-81
2023/03/18 06:26:38;;;;;;;15.80;5.22;;;3.20;81.30;;;;;;6156351;23;20036;-80
2023/03/18 06:29:09;;;;;;;15.60;5.95;;;3.30;80.50;;;;;;6132208;23;20467;-81
2023/03/18 06:31:38;;;;;;;14.13;5.38;;;3.20;80.50;;;;;;6135305;23;20024;-80
2023/03/18 06:34:09;;;;;;;11.60;5.38;;;2.80;80.00;;;;;;6158720;23;20031;-80
2023/03/18 06:36:38;;;;;;;13.07;5.55;;;2.80;80.20;;;;;;6136288;23;20414;-81
2023/03/18 06:39:18;;;;;;;12.10;5.30;;;3.40;80.50;;;;;;6135159;23;20461;-81
2023/03/18 06:41:46;;;;;;;11.98;5.00;;;2.80;80.20;;;;;;6137396;23;20063;-82
2023/03/18 06:44:30;;;;;;;15.55;5.78;;;3.70;80.40;;;;;;6134521;23;20036;-81
2023/03/18 06:47:07;;;;;;;12.77;6.00;;;3.80;80.60;;;;;;6132595;23;20112;-81
2023/03/18 06:49:38;;;;;;;14.13;5.75;;;3.60;81.00;;;;;;6137613;23;20025;-80
2023/03/18 06:52:13;;;;;;;16.85;4.63;;;4.10;81.00;;;;;;6138279;23;20021;-81
2023/03/18 06:54:44;;;;;;;11.40;4.28;;;4.10;79.90;;;;;;6133460;23;20024;-81
2023/03/18 06:57:14;;;;;;;10.15;4.40;;;4.20;79.20;;;;;;6129403;23;20356;-81
2023/03/18 06:59:42;;;;;;;10.40;4.63;;;4.40;79.10;;;;;;6134187;23;20622;-81
2023/03/18 07:02:10;;;;;;;13.27;5.85;;;4.90;79.50;;;;;;6147507;23;20024;-81
2023/03/18 07:04:38;;;;;;;12.70;4.78;;;4.60;78.30;;;;;;6148181;23;20067;-81
2023/03/18 07:07:08;;;;;;;13.95;5.78;;;4.70;78.20;;;;;;6136733;23;20024;-81
2023/03/18 07:09:45;;;;;;;7.15;3.22;;;4.80;78.50;;;;;;6123766;23;20000;-81
2023/03/18 07:12:15;;;;;;;10.43;4.35;;;4.80;77.60;;;;;;6154853;23;20021;-82
2023/03/18 07:14:43;;;;;;;12.50;4.78;;;4.90;77.20;;;;;;6137908;23;20025;-81
2023/03/18 07:17:13;;;;;;;11.90;4.60;;;4.90;77.40;;;;;;6139834;23;20032;-81
2023/03/18 07:19:41;;;;;;;11.07;4.28;;;5.00;77.10;;;;;;6140629;23;20071;-81
2023/03/18 07:22:10;;;;;;;8.80;3.97;;;4.50;75.80;;;;;;6141288;23;20409;-82
2023/03/18 07:24:38;;;;;;;10.35;4.70;;;5.30;76.00;;;;;;6168744;23;20040;-82
2023/03/18 07:27:06;;;;;;;14.35;4.68;;;5.50;75.30;;;;;;6140010;23;20021;-81
2023/03/18 07:29:36;;;;;;;9.63;4.32;;;5.80;74.40;;;;;;6141135;23;20025;-82
2023/03/18 07:32:05;;;;;;;10.57;3.88;;;6.40;75.50;;;;;;6143464;23;20076;-81
2023/03/18 07:34:35;;;;;;;8.75;2.67;;;6.00;73.60;;;;;;6144101;23;20453;-81
2023/03/18 07:37:03;;;;;;;12.27;3.75;;;5.60;72.60;;;;;;6142109;23;20052;-81
2023/03/18 07:39:30;;;;;;;10.38;4.85;;;6.10;72.70;;;;;;6141460;23;20021;-81
2023/03/18 07:42:05;;;;;;;11.85;4.90;;;6.30;72.90;;;;;;6141847;23;20017;-81
2023/03/18 07:44:36;;;;;;;12.07;4.63;;;6.40;71.50;;;;;;6101440;23;20425;-81
2023/03/18 07:47:24;;;;;;;8.10;3.45;;;6.40;71.10;;;;;;6083476;23;20018;-81
2023/03/18 07:49:56;;;;;;;9.68;4.70;;;6.50;71.00;;;;;;6108349;23;20042;-81
2023/03/18 07:52:28;;;;;;;10.95;4.57;;;6.70;70.30;;;;;;6087377;23;20022;-81
2023/03/18 07:55:00;;;;;;;11.15;4.85;;;6.80;70.10;;;;;;6035818;23;20025;-81
2023/03/18 07:57:28;;;;;;;10.25;4.40;;;6.20;70.20;;;;;;6084740;23;20028;-82
2023/03/18 08:00:21;;;;;;;10.52;4.30;;;7.10;70.60;;;;;;6053374;23;20026;-81
2023/03/18 08:02:55;;;;;;;9.73;4.38;;;7.30;69.80;;;;;;6019669;23;20110;-81
2023/03/18 08:29:51;;;;;;;9.70;4.25;;;8.20;67.40;;;;;;6103348;23;20032;31
2023/03/18 09:17:25;;;;;;;6.80;2.92;;;9.90;63.00;;;;;;6182616;23;19960;31
2023/03/18 09:20:28;;;;;;;6.93;2.78;;;10.30;62.30;;;;;;6146693;23;20059;-79
2023/03/18 09:26:38;;;;;;;7.20;2.40;;;10.40;61.70;;;;;;6135065;23;20045;31
2023/03/18 09:32:27;;;;;;;7.05;3.17;;;10.70;59.30;;;;;;6148163;23;20036;-80
2023/03/18 09:35:00;;;;;;;8.25;3.40;;;10.60;60.50;;;;;;6082210;23;20007;-80
2023/03/18 09:41:00;;;;;;;7.82;3.00;;;10.90;60.10;;;;;;6134741;23;20026;31
2023/03/18 09:47:25;;;;;;;4.40;1.73;;;11.00;59.20;;;;;;6191632;23;20029;-80
2023/03/18 09:50:52;;;;;;;6.47;2.83;;;11.30;60.50;;;;;;6101084;23;20080;-80
2023/03/18 09:54:03;;;;;;;7.75;2.58;;;11.20;60.00;;;;;;6121898;23;20028;-80
2023/03/18 09:56:42;;;;;;;7.22;2.30;;;11.00;60.20;;;;;;6190312;23;20009;-81
2023/03/18 10:06:22;;;;;;;7.22;2.55;;;11.50;58.50;;;;;;6169435;23;20087;-79
2023/03/18 10:09:16;;;;;;;6.82;2.60;;;11.50;60.00;;;;;;6162767;23;20024;-80
2023/03/18 10:11:48;;;;;;;6.32;3.10;;;11.60;59.50;;;;;;6132569;23;20057;-80
2023/03/18 10:29:03;;;;;;;5.88;2.85;;;11.90;59.30;;;;;;6163126;23;20005;-80
2023/03/18 10:32:09;;;;;;;5.72;2.25;;;12.10;59.90;;;;;;6137498;23;20109;-81
2023/03/18 10:35:32;;;;;;;3.78;1.90;;;12.10;59.00;;;;;;6191133;23;20025;-80
2023/03/18 10:42:28;;;;;;;4.95;1.73;;;12.30;59.40;;;;;;6179579;23;20013;-80
2023/03/18 10:55:41;;;;;;;3.70;1.85;;;12.80;58.70;;;;;;6157038;23;20029;-80
2023/03/18 10:58:27;;;;;;;8.18;2.60;;;12.70;59.50;;;;;;6150464;23;20047;31
2023/03/18 11:01:19;;;;;;;3.60;2.20;;;12.60;57.90;;;;;;6116336;23;20025;-80
2023/03/18 11:09:45;;;;;;;9.88;2.65;;;12.90;58.70;;;;;;6171732;23;20045;-80
2023/03/18 11:13:01;;;;;;;4.25;1.75;;;12.90;57.60;;;;;;6132727;23;20467;-80
2023/03/18 11:15:41;;;;;;;5.75;2.83;;;12.90;57.70;;;;;;6068439;23;20026;-78
2023/03/18 11:18:23;;;;;;;5.78;2.45;;;12.80;57.40;;;;;;6069782;23;20183;-79
2023/03/18 11:24:19;;;;;;;4.38;1.27;;;12.80;58.80;;;;;;6162412;23;20047;-79
2023/03/18 11:26:56;;;;;;;4.07;1.67;;;12.80;59.10;;;;;;6087461;23;20064;-80
2023/03/18 11:29:28;;;;;;;4.88;1.85;;;13.20;59.30;;;;;;6085608;23;20430;-80
2023/03/18 11:32:25;;;;;;;5.78;1.85;;;13.20;57.90;;;;;;6092826;23;20026;-80
2023/03/18 11:35:05;;;;;;;3.85;2.33;;;13.10;57.50;;;;;;6034823;23;20090;-79
2023/03/18 11:37:40;;;;;;;4.55;1.75;;;13.10;56.30;;;;;;6043711;23;20059;-80
2023/03/18 11:40:22;;;;;;;2.88;1.40;;;13.30;57.90;;;;;;6058999;23;20038;-79
2023/03/18 11:43:00;;;;;;;4.32;1.75;;;13.30;58.10;;;;;;6069497;23;20037;-79
2023/03/18 11:45:45;;;;;;;4.78;1.65;;;13.20;56.50;;;;;;6082107;23;20033;-80
2023/03/18 11:48:38;;;;;;;5.55;2.17;;;13.40;58.00;;;;;;6069524;23;20033;-80
2023/03/18 11:51:47;;;;;;;4.97;2.60;;;13.50;56.80;;;;;;6096140;23;20006;-80
2023/03/18 11:57:54;;;;;;;5.30;2.28;;;13.60;57.10;;;;;;6018264;23;20034;-80
2023/03/18 12:00:32;;;;;;;2.25;1.00;;;13.70;56.90;;;;;;6054912;23;20052;-80
2023/03/18 12:03:47;;;;;;;3.72;2.20;;;13.80;56.80;;;;;;6061834;23;20030;-79
2023/03/18 12:06:55;;;;;;;4.68;2.00;;;13.80;56.20;;;;;;6045831;23;20061;-79
2023/03/18 12:10:54;;;;;;;2.45;1.45;;;13.90;56.40;;;;;;6167906;23;20488;-79
2023/03/18 12:13:50;;;;;;;4.82;1.75;;;13.80;55.90;;;;;;6016567;23;20003;-80
2023/03/18 12:16:42;;;;;;;3.25;1.60;;;13.60;54.10;;;;;;6018847;23;20055;-80
2023/03/18 12:50:24;;;;;;;8.00;3.60;;;14.20;57.50;;;;;;6165791;23;20087;-80
2023/03/18 12:53:02;;;;;;;7.47;4.43;;;14.10;57.00;;;;;;6153041;23;20024;-81
2023/03/18 12:55:39;;;;;;;8.13;4.00;;;14.10;57.60;;;;;;6157141;23;20048;-81
2023/03/18 12:58:15;;;;;;;8.63;4.03;;;14.10;57.90;;;;;;6129714;23;20021;-80
2023/03/18 13:01:05;;;;;;;6.03;2.85;;;14.10;58.70;;;;;;6150569;23;20021;-81
2023/03/18 13:03:39;;;;;;;5.43;2.47;;;14.20;58.00;;;;;;6149332;23;20021;-81
2023/03/18 13:06:12;;;;;;;4.35;2.00;;;14.20;57.10;;;;;;6148610;23;20021;-81
2023/03/18 13:09:10;;;;;;;6.65;2.97;;;14.00;55.70;;;;;;6137261;23;20072;-81
2023/03/18 13:11:53;;;;;;;7.15;3.17;;;13.90;56.80;;;;;;6134911;23;20456;-80
2023/03/18 13:14:57;;;;;;;5.70;2.75;;;14.10;58.10;;;;;;6127233;23;20382;-80
2023/03/18 13:17:35;;;;;;;4.97;2.50;;;14.00;57.80;;;;;;6141034;23;20314;-80
2023/03/18 13:20:21;;;;;;;5.95;3.00;;;14.10;58.80;;;;;;6105895;23;20022;-80
2023/03/18 13:56:23;;;;;;;5.30;2.40;;;13.50;59.50;;;;;;6132721;23;20852;31
2023/03/18 13:59:08;;;;;;;4.68;2.15;;;13.60;60.30;;;;;;6079653;23;20433;-80
2023/03/18 14:01:48;;;;;;;2.90;1.98;;;13.50;59.20;;;;;;6077984;23;20034;-79
2023/03/18 14:04:47;;;;;;;4.25;1.60;;;13.50;57.90;;;;;;6141097;23;20017;-80
2023/03/18 14:11:27;;;;;;;2.53;1.30;;;13.60;58.50;;;;;;6078773;23;20037;31
2023/03/18 14:14:04;;;;;;;6.32;2.50;;;13.60;58.10;;;;;;6083405;23;20110;-80
2023/03/18 14:16:36;;;;;;;3.20;1.38;;;13.50;57.20;;;;;;6040451;23;20034;-80
2023/03/18 14:19:31;;;;;;;5.05;1.60;;;13.40;57.80;;;;;;6076310;23;20073;31
2023/03/18 14:22:35;;;;;;;3.13;0.93;;;13.50;58.50;;;;;;6106232;23;19921;-80
2023/03/18 14:25:42;;;;;;;4.13;0.90;;;13.40;57.90;;;;;;6117609;23;20025;-80
2023/03/18 14:28:28;;;;;;;2.47;1.13;;;13.80;58.00;;;;;;6159042;23;20041;-79
2023/03/18 14:34:28;;;;;;;2.92;1.05;;;13.30;57.30;;;;;;6184361;23;20025;-79
2023/03/18 14:37:51;;;;;;;4.53;1.58;;;13.30;57.70;;;;;;6166582;23;20012;-79
2023/03/18 14:40:30;;;;;;;3.55;2.20;;;12.90;57.40;;;;;;6175303;23;20060;-80
2023/03/18 14:43:07;;;;;;;4.75;1.48;;;13.20;57.30;;;;;;6212416;23;20019;-79
2023/03/18 14:45:48;;;;;;;4.18;1.50;;;13.20;57.70;;;;;;6139776;23;20017;-79
2023/03/18 14:51:19;;;;;;;3.70;1.80;;;13.20;58.10;;;;;;6106986;23;20066;-80
2023/03/18 14:54:04;;;;;;;2.38;1.00;;;13.10;58.00;;;;;;6092640;23;20029;-80
2023/03/18 14:56:52;;;;;;;4.63;1.88;;;13.20;57.80;;;;;;6102483;23;20699;-80
2023/03/18 15:03:30;;;;;;;3.33;1.40;;;13.20;57.60;;;;;;6192264;23;20068;-80
2023/03/18 15:06:22;;;;;;;3.85;1.80;;;13.20;58.30;;;;;;6166985;23;20028;-81
2023/03/18 15:11:46;;;;;;;3.70;1.50;;;13.30;57.90;;;;;;6139031;23;20055;-81
2023/03/18 15:17:33;;;;;;;4.80;1.40;;;13.10;58.20;;;;;;6148649;23;20104;-80
2023/03/18 15:20:01;;;;;;;2.33;0.93;;;13.00;58.80;;;;;;6115347;23;20043;-79
2023/03/18 15:22:34;;;;;;;3.30;1.60;;;13.00;58.80;;;;;;6114737;23;20021;-80
2023/03/18 15:25:07;;;;;;;3.40;1.73;;;12.80;59.40;;;;;;6116540;23;20060;-80
2023/03/18 15:27:35;;;;;;;2.85;1.60;;;12.90;60.70;;;;;;6120497;23;20027;-80
2023/03/18 15:30:06;;;;;;;4.25;2.03;;;12.70;60.90;;;;;;6115609;23;20021;-80
2023/03/18 15:32:44;;;;;;;5.10;2.45;;;12.70;60.70;;;;;;6094554;23;20028;-80
2023/03/18 15:35:21;;;;;;;9.88;3.95;;;12.60;60.90;;;;;;6141315;23;20021;-80
2023/03/18 15:38:08;;;;;;;6.07;3.50;;;12.50;61.40;;;;;;6122974;23;20017;-81
2023/03/18 15:40:52;;;;;;;3.55;1.77;;;12.50;61.40;;;;;;6177137;23;20088;-78
2023/03/18 15:43:52;;;;;;;3.60;1.90;;;12.60;61.10;;;;;;6175501;23;20449;-80
2023/03/18 15:46:29;;;;;;;2.05;0.93;;;12.50;60.50;;;;;;6128717;23;20598;-80
2023/03/18 15:49:00;;;;;;;2.80;1.27;;;12.50;60.90;;;;;;6146328;23;20043;-81
2023/03/18 15:51:48;;;;;;;11.02;5.03;;;12.50;60.90;;;;;;6148857;23;20433;-79
2023/03/18 15:54:31;;;;;;;7.93;4.30;;;12.20;60.60;;;;;;6171283;23;20048;-80
2023/03/18 15:57:09;;;;;;;6.95;2.78;;;12.50;60.70;;;;;;6173156;23;20017;-79
2023/03/18 15:59:37;;;;;;;5.93;2.15;;;12.30;61.20;;;;;;6170254;23;20029;-81
2023/03/18 16:02:14;;;;;;;7.75;2.60;;;12.20;61.50;;;;;;6182194;23;20029;-80
2023/03/18 16:04:47;;;;;;;4.60;2.10;;;12.10;62.20;;;;;;6145824;23;20547;-80
2023/03/18 16:07:21;;;;;;;4.63;2.22;;;12.00;62.30;;;;;;6146511;23;20034;-81
2023/03/18 16:09:50;;;;;;;9.85;3.53;;;12.00;62.90;;;;;;6173088;23;20380;-81
2023/03/18 16:12:20;;;;;;;7.38;2.67;;;11.80;62.50;;;;;;6144925;23;20025;-80
2023/03/18 16:14:52;;;;;;;6.32;2.80;;;11.80;62.50;;;;;;6129502;23;20024;-80
2023/03/18 16:17:20;;;;;;;4.00;2.33;;;11.80;63.10;;;;;;6151896;23;20029;-81
2023/03/18 16:19:53;;;;;;;4.18;1.90;;;11.70;63.70;;;;;;6128906;23;20025;-81
2023/03/18 16:22:20;;;;;;;3.47;1.73;;;11.70;64.00;;;;;;6148421;23;20025;-80
2023/03/18 16:24:51;;;;;;;4.07;1.90;;;11.50;64.00;;;;;;6124157;23;20472;-81
2023/03/18 16:27:37;;;;;;;6.93;2.47;;;11.40;64.10;;;;;;6146549;23;20048;-80
2023/03/18 16:30:06;;;;;;;6.28;2.15;;;11.40;64.50;;;;;;6127927;23;20021;-81
2023/03/18 16:32:34;;;;;;;7.32;3.08;;;11.30;64.90;;;;;;6147584;23;20025;-81
2023/03/18 16:35:05;;;;;;;13.52;4.22;;;11.20;65.30;;;;;;6126570;23;20087;-81
2023/03/18 16:37:34;;;;;;;9.85;3.53;;;11.20;65.50;;;;;;6150420;23;20044;-81
2023/03/18 16:40:02;;;;;;;16.67;3.95;;;11.30;65.50;;;;;;6154195;23;20021;-81
2023/03/18 16:42:30;;;;;;;13.82;5.10;;;11.10;65.60;;;;;;6129572;23;20025;-81
2023/03/18 16:44:57;;;;;;;10.27;4.47;;;11.00;66.00;;;;;;6155028;23;20574;-81
2023/03/18 16:47:26;;;;;;;11.45;5.75;;;11.10;66.20;;;;;;6153854;23;20116;-81
2023/03/18 16:49:55;;;;;;;7.93;3.15;;;10.30;66.10;;;;;;6149533;23;20025;-81
2023/03/18 16:52:25;;;;;;;9.13;2.40;;;10.90;66.50;;;;;;6150556;23;20017;-81
2023/03/18 16:54:53;;;;;;;5.15;2.90;;;10.70;66.90;;;;;;6154610;23;20024;-81
2023/03/18 16:57:22;;;;;;;5.78;2.78;;;10.60;67.10;;;;;;6149540;23;20071;-81
2023/03/18 16:59:56;;;;;;;10.23;3.30;;;10.60;67.40;;;;;;6149343;23;20040;-81
2023/03/18 17:02:36;;;;;;;5.38;3.13;;;10.60;67.60;;;;;;6148073;23;20044;-81
2023/03/18 17:05:07;;;;;;;5.38;3.75;;;10.30;67.80;;;;;;6160337;23;20035;-82
2023/03/18 17:07:36;;;;;;;12.18;6.80;;;10.40;68.20;;;;;;6173867;23;20021;-81
2023/03/18 17:10:05;;;;;;;9.05;6.38;;;10.40;68.40;;;;;;6175374;23;20044;-80
2023/03/18 17:12:33;;;;;;;24.50;13.95;;;10.30;68.60;;;;;;6125168;23;20353;-80
2023/03/18 17:15:00;;;;;;;10.48;5.68;;;10.20;69.00;;;;;;6155098;23;20024;-80
2023/03/18 17:17:32;;;;;;;13.43;7.00;;;10.00;69.00;;;;;;6153453;23;20135;-80
2023/03/18 17:20:01;;;;;;;36.17;17.80;;;10.00;69.20;;;;;;6155224;23;20461;-80
2023/03/18 17:22:32;;;;;;;34.40;17.40;;;10.00;69.40;;;;;;6129546;23;20433;-80
2023/03/18 17:25:01;;;;;;;28.23;15.15;;;10.00;69.80;;;;;;6152531;23;20527;-80
2023/03/18 17:27:33;;;;;;;15.05;7.63;;;9.80;69.90;;;;;;6149697;23;20043;-80
2023/03/18 17:30:02;;;;;;;13.15;7.93;;;9.70;70.00;;;;;;6152333;23;20021;-80
2023/03/18 17:32:30;;;;;;;21.17;13.73;;;9.80;70.30;;;;;;6154905;23;20049;-80
2023/03/18 17:35:00;;;;;;;23.65;16.50;;;9.60;70.30;;;;;;6153076;23;20623;-80
2023/03/18 17:37:30;;;;;;;19.85;12.70;;;9.70;70.50;;;;;;6149058;23;20032;-80
2023/03/18 17:40:00;;;;;;;31.30;16.30;;;9.70;70.70;;;;;;6147671;23;20021;-80
2023/03/18 17:42:33;;;;;;;31.23;14.93;;;9.60;70.80;;;;;;6126457;23;20029;-80
2023/03/18 17:45:17;;;;;;;;;;;10.00;71.10;;;;;;6157039;23;20017;-80
2023/03/18 17:47:49;;;;;;;23.17;10.45;;;9.50;70.90;;;;;;6160791;23;19947;-80
2023/03/18 17:50:20;;;;;;;27.53;13.80;;;9.50;71.20;;;;;;6160603;23;20031;-80
2023/03/18 17:52:52;;;;;;;61.38;27.17;;;9.60;71.60;;;;;;6173501;23;20354;-80
2023/03/18 17:55:22;;;;;;;46.47;20.92;;;9.50;71.70;;;;;;6146780;23;20024;-80
2023/03/18 17:57:52;;;;;;;40.72;20.50;;;9.40;71.80;;;;;;6148279;23;20121;-80
2023/03/18 18:00:27;;;;;;;39.38;19.60;;;9.50;72.00;;;;;;6150264;23;20017;-81
2023/03/18 18:02:58;;;;;;;30.65;16.08;;;9.20;72.10;;;;;;6161617;23;20035;-80
2023/03/18 18:05:27;;;;;;;20.48;12.05;;;9.50;72.40;;;;;;6146202;23;20064;-81
2023/03/18 18:07:55;;;;;;;24.25;12.98;;;9.60;72.30;;;;;;6078640;23;20453;-80
2023/03/18 18:10:24;;;;;;;29.73;16.13;;;9.30;72.60;;;;;;6058275;23;20061;-80
2023/03/18 18:12:52;;;;;;;24.52;14.48;;;9.20;72.70;;;;;;6061682;23;20058;-80
2023/03/18 18:15:26;;;;;;;11.60;6.85;;;9.30;72.90;;;;;;6055630;23;20029;-80
2023/03/18 18:17:58;;;;;;;8.23;4.22;;;9.30;73.00;;;;;;6085758;23;20029;-80
2023/03/18 18:20:26;;;;;;;67.80;21.67;;;9.30;73.20;;;;;;6095161;23;20596;-80
2023/03/18 18:22:55;;;;;;;57.83;19.15;;;9.20;73.20;;;;;;6066192;23;20456;-80
2023/03/18 18:25:29;;;;;;;34.33;14.05;;;9.20;73.20;;;;;;6064575;23;20082;-80
2023/03/18 18:27:57;;;;;;;15.52;7.65;;;9.30;73.50;;;;;;6063007;23;20019;-80
2023/03/18 18:30:27;;;;;;;13.52;6.32;;;9.10;73.70;;;;;;6056601;23;20061;-81
2023/03/18 18:32:57;;;;;;;7.80;4.10;;;8.90;73.50;;;;;;6051984;23;20384;-80
2023/03/18 18:35:25;;;;;;;9.68;5.35;;;9.20;73.70;;;;;;6055769;23;20027;-80
2023/03/18 18:37:55;;;;;;;14.98;7.30;;;9.20;74.10;;;;;;6055550;23;20022;-80
2023/03/18 18:40:39;;;;;;;12.38;5.68;;;9.00;74.10;;;;;;6054354;23;20034;-80
2023/03/18 18:43:17;;;;;;;17.27;8.65;;;8.80;74.20;;;;;;6055511;23;20098;-80
2023/03/18 18:46:03;;;;;;;15.45;8.05;;;9.10;74.50;;;;;;6098405;23;20313;-80
2023/03/18 18:48:36;;;;;;;37.88;14.85;;;8.90;74.50;;;;;;6094625;23;20216;-80
2023/03/18 18:51:15;;;;;;;26.65;10.75;;;8.90;74.80;;;;;;6109829;23;20424;-80
2023/03/18 18:53:44;;;;;;;78.20;28.02;;;8.90;74.90;;;;;;6113691;23;20025;-80
2023/03/18 18:56:30;;;;;;;37.40;15.95;;;8.80;74.90;;;;;;6110567;23;20025;-80
2023/03/18 18:59:00;;;;;;;12.27;6.18;;;8.70;74.80;;;;;;6152802;23;20017;-80
2023/03/18 19:01:29;;;;;;;16.40;6.90;;;8.80;75.00;;;;;;6142575;23;20462;-80
2023/03/18 19:03:58;;;;;;;14.15;6.70;;;8.80;75.30;;;;;;6147973;23;20033;-80
2023/03/18 19:06:32;;;;;;;10.15;5.13;;;8.60;75.50;;;;;;6150511;23;20021;-80
2023/03/18 19:09:17;;;;;;;9.75;5.30;;;8.00;75.10;;;;;;6152830;23;20035;-80
2023/03/18 19:11:48;;;;;;;;;;;8.70;75.30;;;;;;6172979;23;20029;-80
2023/03/18 19:14:26;;;;;;;22.55;10.63;;;8.90;75.70;;;;;;6172491;23;19935;-81
2023/03/18 19:16:58;;;;;;;14.38;8.73;;;8.50;75.60;;;;;;6151259;23;20021;-80
2023/03/18 19:19:28;;;;;;;15.93;7.75;;;8.70;75.90;;;;;;6177204;23;20028;-80
2023/03/18 19:22:08;;;;;;;22.33;12.80;;;8.60;76.00;;;;;;6127971;23;20024;-80
2023/03/18 19:24:41;;;;;;;19.13;10.60;;;8.50;76.20;;;;;;6124194;23;20083;-80
2023/03/18 19:27:31;;;;;;;20.75;11.95;;;8.50;76.50;;;;;;6149727;23;20065;-80
2023/03/18 19:30:04;;;;;;;18.20;10.10;;;8.20;76.50;;;;;;6175440;23;20017;-80
2023/03/18 19:32:49;;;;;;;15.20;8.55;;;8.60;77.00;;;;;;6160279;23;20313;-80
2023/03/18 19:35:24;;;;;;;17.95;8.93;;;8.30;76.80;;;;;;6175634;23;20153;-80
2023/03/18 19:38:18;;;;;;;11.52;7.07;;;8.30;77.20;;;;;;6170887;23;20063;-80
2023/03/18 19:40:49;;;;;;;13.00;6.70;;;8.30;77.20;;;;;;6147616;23;20021;-80
2023/03/18 19:43:31;;;;;;;15.40;7.05;;;8.30;77.50;;;;;;6112212;23;20034;-80
2023/03/18 19:46:05;;;;;;;14.68;6.95;;;8.30;77.70;;;;;;6111444;23;20285;-80
2023/03/18 19:48:36;;;;;;;12.23;5.72;;;8.30;77.90;;;;;;6110142;23;20026;-80
2023/03/18 19:51:18;;;;;;;16.30;6.20;;;8.20;78.20;;;;;;6112191;23;20022;-79
2023/03/18 19:56:55;;;;;;;15.68;6.88;;;8.10;78.40;;;;;;6081684;23;20461;-80
2023/03/18 19:59:27;;;;;;;8.80;5.15;;;8.20;78.90;;;;;;6109208;23;20080;-80
2023/03/18 20:02:42;;;;;;;11.23;5.22;;;8.10;78.90;;;;;;6111229;23;20133;-80
2023/03/18 20:05:21;;;;;;;13.45;6.20;;;8.10;79.00;;;;;;6025201;23;20036;-80
2023/03/18 20:07:57;;;;;;;12.10;5.72;;;8.00;79.20;;;;;;6082617;23;20069;-80
2023/03/18 20:10:25;;;;;;;39.28;21.88;;;7.90;79.20;;;;;;6089072;23;20061;-80
2023/03/18 20:12:54;;;;;;;51.25;27.63;;;7.90;79.30;;;;;;6110222;23;20469;-80
2023/03/18 20:15:28;;;;;;;73.43;35.88;;;7.80;79.50;;;;;;6141516;23;20083;-79
2023/03/18 20:17:59;;;;;;;38.88;20.65;;;8.00;79.60;;;;;;6141743;23;20112;-80
2023/03/18 20:20:34;;;;;;;24.55;12.88;;;8.00;79.60;;;;;;6079611;23;20022;-80
2023/03/18 20:23:32;;;;;;;19.00;9.70;;;8.00;79.90;;;;;;6051219;23;20038;-80
2023/03/18 20:26:01;;;;;;;21.10;10.00;;;8.00;79.80;;;;;;6025964;23;20027;-79
2023/03/18 20:28:31;;;;;;;14.10;6.50;;;7.80;80.00;;;;;;6009872;23;20534;-79
2023/03/18 20:31:00;;;;;;;10.05;4.97;;;7.80;80.20;;;;;;6027490;23;20082;-80
2023/03/18 20:33:31;;;;;;;12.60;5.15;;;7.90;80.40;;;;;;6027235;23;20383;-80
2023/03/18 20:36:00;;;;;;;10.02;5.05;;;7.90;80.40;;;;;;6002038;23;20022;-80
2023/03/18 20:38:38;;;;;;;10.00;5.30;;;7.70;80.20;;;;;;5974090;23;20520;-80
2023/03/18 20:41:09;;;;;;;10.32;4.85;;;7.70;80.40;;;;;;5967650;23;20032;-80
2023/03/18 20:43:40;;;;;;;9.77;5.70;;;7.70;80.50;;;;;;5945281;24;20579;-80
2023/03/18 20:46:14;;;;;;;11.93;6.45;;;7.60;80.60;;;;;;5952920;24;20050;-80
2023/03/18 20:48:48;;;;;;;15.98;8.25;;;7.60;80.70;;;;;;5938426;23;20075;-80
2023/03/18 20:51:33;;;;;;;14.25;7.85;;;7.60;80.90;;;;;;5921477;24;20092;-80
2023/03/18 20:54:28;;;;;;;13.27;6.80;;;7.50;81.00;;;;;;5924490;24;20028;-80
2023/03/18 20:56:57;;;;;;;16.17;6.03;;;7.50;81.20;;;;;;5945491;23;20139;-80
2023/03/18 20:59:25;;;;;;;10.90;5.32;;;7.60;81.50;;;;;;5982664;23;20049;-80
2023/03/18 21:01:53;;;;;;;13.25;6.32;;;7.60;81.70;;;;;;5978671;23;20031;-80
2023/03/18 21:04:21;;;;;;;12.30;6.30;;;7.50;81.90;;;;;;6013846;23;20061;-80
2023/03/18 21:07:02;;;;;;;15.65;6.55;;;7.40;82.30;;;;;;5979644;23;20049;-80
2023/03/18 21:09:29;;;;;;;18.08;6.72;;;7.20;82.10;;;;;;5979934;23;20086;-80
2023/03/18 21:12:00;;;;;;;13.43;6.72;;;7.30;82.30;;;;;;6004373;23;20549;-80
2023/03/18 21:14:29;;;;;;;13.10;6.90;;;7.20;82.10;;;;;;6060673;23;20054;-80
2023/03/18 21:16:58;;;;;;;11.38;6.18;;;7.20;82.30;;;;;;6135628;23;20175;-80
2023/03/18 21:19:29;;;;;;;13.23;6.30;;;7.40;82.30;;;;;;6175070;23;20464;-80
2023/03/18 21:21:58;;;;;;;14.23;7.22;;;6.90;82.20;;;;;;6151684;23;20048;-80
2023/03/18 21:24:30;;;;;;;12.77;5.63;;;7.30;82.50;;;;;;6151994;23;20051;-80
2023/03/18 21:26:57;;;;;;;14.15;6.80;;;7.10;82.20;;;;;;6153658;23;20365;-80
2023/03/18 21:29:32;;;;;;;14.40;6.68;;;7.20;82.40;;;;;;6147057;23;20032;-80
2023/03/18 21:32:01;;;;;;;12.50;6.30;;;6.90;82.50;;;;;;6150726;23;20021;-80
2023/03/18 21:34:30;;;;;;;18.10;8.68;;;7.00;82.40;;;;;;6149208;23;20024;-80
2023/03/18 21:37:03;;;;;;;24.17;11.47;;;7.00;82.40;;;;;;6135413;23;20021;-80
2023/03/18 21:39:35;;;;;;;21.15;10.65;;;7.10;82.40;;;;;;6149244;23;20381;-80
2023/03/18 21:42:03;;;;;;;19.25;9.38;;;7.00;82.70;;;;;;6123409;23;20049;-80
2023/03/18 21:44:30;;;;;;;17.77;8.10;;;7.00;82.80;;;;;;6128224;23;20389;-80
2023/03/18 21:46:58;;;;;;;20.13;9.85;;;7.00;82.90;;;;;;6152463;23;20425;-80
2023/03/18 21:49:27;;;;;;;17.95;9.18;;;6.80;83.00;;;;;;6151399;23;20449;-80
2023/03/18 21:51:57;;;;;;;17.73;8.73;;;7.10;83.10;;;;;;6126260;23;20025;-80
2023/03/18 21:54:25;;;;;;;19.58;8.93;;;6.90;83.20;;;;;;6153347;23;20008;-80
2023/03/18 21:56:52;;;;;;;17.33;9.27;;;6.90;83.50;;;;;;6154935;23;20016;-80
2023/03/18 21:59:22;;;;;;;17.42;9.27;;;6.90;83.50;;;;;;6126604;23;20057;-80
2023/03/18 22:01:50;;;;;;;16.42;9.38;;;6.70;83.60;;;;;;6149343;23;20029;-80
2023/03/18 22:04:17;;;;;;;17.38;8.20;;;6.80;83.90;;;;;;6147780;23;20114;-80
2023/03/18 22:06:45;;;;;;;15.60;8.30;;;6.80;84.20;;;;;;6149116;23;20021;-80
2023/03/18 22:09:12;;;;;;;18.05;8.68;;;6.70;84.10;;;;;;6153455;23;20041;-80
2023/03/18 22:11:39;;;;;;;16.25;8.45;;;6.60;84.20;;;;;;6149637;23;20093;-80
2023/03/18 22:14:12;;;;;;;17.88;9.00;;;6.50;84.30;;;;;;6150667;23;20076;-80
2023/03/18 22:16:39;;;;;;;18.05;8.70;;;6.60;84.50;;;;;;6161832;23;20083;-80
2023/03/18 22:19:07;;;;;;;18.17;7.45;;;6.60;84.80;;;;;;6171385;23;20064;-80
2023/03/18 22:21:34;;;;;;;15.98;8.05;;;6.50;84.70;;;;;;6152230;23;20021;-80
2023/03/18 22:24:01;;;;;;;15.77;7.93;;;6.50;84.90;;;;;;6177964;23;20085;-80
2023/03/18 22:26:31;;;;;;;15.55;7.55;;;6.40;85.00;;;;;;6154088;23;20025;-80
2023/03/18 22:28:58;;;;;;;14.57;7.65;;;6.60;85.40;;;;;;6149612;23;20075;-80
2023/03/18 22:31:26;;;;;;;15.52;7.32;;;6.30;85.50;;;;;;6150298;23;20028;-80
2023/03/18 22:33:59;;;;;;;16.75;7.90;;;6.40;85.90;;;;;;6176515;23;20025;-80
2023/03/18 22:36:28;;;;;;;14.90;7.47;;;6.20;85.70;;;;;;6181691;23;20017;-80
2023/03/18 22:38:58;;;;;;;13.82;6.95;;;6.30;85.90;;;;;;6149392;23;20453;-80
2023/03/18 22:41:30;;;;;;;16.23;6.50;;;6.30;86.40;;;;;;6150744;23;20091;-80
2023/03/18 22:43:58;;;;;;;13.75;6.65;;;6.30;86.40;;;;;;6150011;23;20025;-80
2023/03/18 22:46:30;;;;;;;15.88;7.03;;;5.80;86.20;;;;;;6177364;23;20354;-80
2023/03/18 22:49:04;;;;;;;12.88;6.72;;;6.20;86.60;;;;;;6152168;23;20368;-80
2023/03/18 22:51:35;;;;;;;14.55;7.25;;;6.30;86.70;;;;;;6149566;23;20016;-80
2023/03/18 22:54:03;;;;;;;14.95;6.88;;;6.10;86.60;;;;;;6149314;23;20071;-81
2023/03/18 22:56:31;;;;;;;15.82;6.90;;;6.10;87.00;;;;;;6150833;23;20017;-80
2023/03/18 22:59:03;;;;;;;13.98;6.57;;;6.10;87.10;;;;;;6150667;23;20017;-80
2023/03/18 23:01:30;;;;;;;17.00;6.95;;;6.10;87.30;;;;;;6149493;23;20028;-79
2023/03/18 23:03:58;;;;;;;18.42;7.45;;;5.90;87.40;;;;;;6150770;23;20040;-80
2023/03/18 23:06:28;;;;;;;18.63;7.40;;;6.20;87.30;;;;;;6174683;23;20029;-80
2023/03/18 23:08:56;;;;;;;21.35;8.63;;;5.90;87.60;;;;;;6151311;23;20025;-80
2023/03/18 23:11:23;;;;;;;23.65;9.93;;;5.80;87.40;;;;;;6155123;23;20024;-80
2023/03/18 23:13:52;;;;;;;21.63;9.63;;;5.80;87.60;;;;;;6152519;23;20048;-80
2023/03/18 23:16:22;;;;;;;25.75;10.10;;;5.60;87.60;;;;;;6152590;23;20021;-80
2023/03/18 23:18:50;;;;;;;30.65;11.57;;;5.60;87.50;;;;;;6151069;23;20409;-80
2023/03/18 23:21:20;;;;;;;28.05;11.45;;;5.80;87.60;;;;;;6128873;23;20025;-80
2023/03/18 23:23:48;;;;;;;33.47;12.48;;;5.80;87.70;;;;;;6151513;23;20102;-80
2023/03/18 23:26:19;;;;;;;44.38;14.73;;;5.70;87.90;;;;;;6151057;23;20224;-80